sensor_id;sensor_type;location;lat;lon;timestamp;temperature;humidity
6758;DHT22;3416;53.074;8.822;2023-04-07T00:01:49;8.00;87.70
6758;DHT22;3416;53.074;8.822;2023-04-07T00:04:25;8.00;88.00
6758;DHT22;3416;53.074;8.822;2023-04-07T00:06:57;7.90;88.00
6758;DHT22;3416;53.074;8.822;2023-04-07T00:09:47;7.80;88.30
6758;DHT22;3416;53.074;8.822;2023-04-07T00:12:14;7.80;88.70
6758;DHT22;3416;53.074;8.822;2023-04-07T00:14:44;7.80;88.60
6758;DHT22;3416;53.074;8.822;2023-04-07T00:17:18;7.80;88.90
6758;DHT22;3416;53.074;8.822;2023-04-07T00:19:54;7.80;89.00
6758;DHT22;3416;53.074;8.822;2023-04-07T00:22:21;7.80;89.20
6758;DHT22;3416;53.074;8.822;2023-04-07T00:24:57;7.70;89.40
6758;DHT22;3416;53.074;8.822;2023-04-07T00:27:27;7.70;89.60
6758;DHT22;3416;53.074;8.822;2023-04-07T00:30:04;7.60;89.90
6758;DHT22;3416;53.074;8.822;2023-04-07T00:32:33;7.60;90.10
6758;DHT22;3416;53.074;8.822;2023-04-07T00:35:09;7.60;90.20
6758;DHT22;3416;53.074;8.822;2023-04-07T00:37:37;7.50;90.20
6758;DHT22;3416;53.074;8.822;2023-04-07T00:40:08;7.40;90.20
6758;DHT22;3416;53.074;8.822;2023-04-07T00:42:49;7.40;90.40
6758;DHT22;3416;53.074;8.822;2023-04-07T00:45:21;7.30;90.50
6758;DHT22;3416;53.074;8.822;2023-04-07T00:47:53;7.30;90.50
6758;DHT22;3416;53.074;8.822;2023-04-07T00:50:32;7.30;90.50
6758;DHT22;3416;53.074;8.822;2023-04-07T00:53:15;7.30;90.50
6758;DHT22;3416;53.074;8.822;2023-04-07T00:55:45;7.20;90.60
6758;DHT22;3416;53.074;8.822;2023-04-07T00:58:27;7.30;90.50
6758;DHT22;3416;53.074;8.822;2023-04-07T01:01:01;7.40;90.50
6758;DHT22;3416;53.074;8.822;2023-04-07T01:03:44;7.30;90.60
6758;DHT22;3416;53.074;8.822;2023-04-07T01:06:19;7.30;90.60
6758;DHT22;3416;53.074;8.822;2023-04-07T01:08:56;7.30;90.60
6758;DHT22;3416;53.074;8.822;2023-04-07T01:11:47;7.30;90.50
6758;DHT22;3416;53.074;8.822;2023-04-07T01:14:29;7.30;90.50
6758;DHT22;3416;53.074;8.822;2023-04-07T01:17:09;7.20;90.60
6758;DHT22;3416;53.074;8.822;2023-04-07T01:19:46;7.20;90.60
6758;DHT22;3416;53.074;8.822;2023-04-07T01:22:19;7.20;90.60
6758;DHT22;3416;53.074;8.822;2023-04-07T01:25:14;7.20;90.60
6758;DHT22;3416;53.074;8.822;2023-04-07T01:27:59;7.10;90.80
6758;DHT22;3416;53.074;8.822;2023-04-07T01:31:04;7.10;90.70
6758;DHT22;3416;53.074;8.822;2023-04-07T01:33:37;7.10;90.80
6758;DHT22;3416;53.074;8.822;2023-04-07T01:36:22;7.10;90.70
6758;DHT22;3416;53.074;8.822;2023-04-07T01:39:00;7.00;91.10
6758;DHT22;3416;53.074;8.822;2023-04-07T01:41:29;7.00;90.90
6758;DHT22;3416;53.074;8.822;2023-04-07T01:43:58;7.00;91.00
6758;DHT22;3416;53.074;8.822;2023-04-07T01:46:43;7.10;90.90
6758;DHT22;3416;53.074;8.822;2023-04-07T01:49:21;7.10;90.80
6758;DHT22;3416;53.074;8.822;2023-04-07T01:51:59;7.10;90.70
6758;DHT22;3416;53.074;8.822;2023-04-07T01:54:28;7.10;90.70
6758;DHT22;3416;53.074;8.822;2023-04-07T01:57:00;7.20;90.70
6758;DHT22;3416;53.074;8.822;2023-04-07T01:59:48;7.20;90.50
6758;DHT22;3416;53.074;8.822;2023-04-07T02:02:25;7.20;90.50
6758;DHT22;3416;53.074;8.822;2023-04-07T02:05:03;7.10;90.40
6758;DHT22;3416;53.074;8.822;2023-04-07T02:07:40;7.10;90.40
6758;DHT22;3416;53.074;8.822;2023-04-07T02:10:15;7.10;90.30
6758;DHT22;3416;53.074;8.822;2023-04-07T02:12:50;7.10;90.40
6758;DHT22;3416;53.074;8.822;2023-04-07T02:15:22;7.00;90.40
6758;DHT22;3416;53.074;8.822;2023-04-07T02:18:00;6.90;90.40
6758;DHT22;3416;53.074;8.822;2023-04-07T02:20:37;6.90;90.60
6758;DHT22;3416;53.074;8.822;2023-04-07T02:23:21;6.80;90.60
6758;DHT22;3416;53.074;8.822;2023-04-07T02:25:55;6.70;90.70
6758;DHT22;3416;53.074;8.822;2023-04-07T02:28:25;6.70;90.80
6758;DHT22;3416;53.074;8.822;2023-04-07T02:30:59;6.70;91.00
6758;DHT22;3416;53.074;8.822;2023-04-07T02:33:28;6.70;91.00
6758;DHT22;3416;53.074;8.822;2023-04-07T02:36:02;6.60;91.00
6758;DHT22;3416;53.074;8.822;2023-04-07T02:38:32;6.60;91.10
6758;DHT22;3416;53.074;8.822;2023-04-07T02:40:59;6.60;91.20
6758;DHT22;3416;53.074;8.822;2023-04-07T02:43:34;6.60;91.20
6758;DHT22;3416;53.074;8.822;2023-04-07T02:46:07;6.70;91.20
6758;DHT22;3416;53.074;8.822;2023-04-07T02:48:41;6.60;91.10
6758;DHT22;3416;53.074;8.822;2023-04-07T02:51:14;6.70;91.20
6758;DHT22;3416;53.074;8.822;2023-04-07T02:53:42;6.70;91.10
6758;DHT22;3416;53.074;8.822;2023-04-07T02:56:13;6.70;91.10
6758;DHT22;3416;53.074;8.822;2023-04-07T02:58:45;6.70;91.10
6758;DHT22;3416;53.074;8.822;2023-04-07T03:01:19;6.70;91.00
6758;DHT22;3416;53.074;8.822;2023-04-07T03:04:03;6.60;91.00
6758;DHT22;3416;53.074;8.822;2023-04-07T03:06:31;6.60;91.10
6758;DHT22;3416;53.074;8.822;2023-04-07T03:09:00;6.50;91.10
6758;DHT22;3416;53.074;8.822;2023-04-07T03:11:33;6.50;91.10
6758;DHT22;3416;53.074;8.822;2023-04-07T03:14:03;6.50;91.20
6758;DHT22;3416;53.074;8.822;2023-04-07T03:16:30;6.50;91.30
6758;DHT22;3416;53.074;8.822;2023-04-07T03:19:03;6.40;91.50
6758;DHT22;3416;53.074;8.822;2023-04-07T03:21:42;6.40;91.60
6758;DHT22;3416;53.074;8.822;2023-04-07T03:24:11;6.40;91.50
6758;DHT22;3416;53.074;8.822;2023-04-07T03:26:45;6.30;91.60
6758;DHT22;3416;53.074;8.822;2023-04-07T03:29:26;6.40;91.60
6758;DHT22;3416;53.074;8.822;2023-04-07T03:31:59;6.40;91.60
6758;DHT22;3416;53.074;8.822;2023-04-07T03:34:32;6.30;91.60
6758;DHT22;3416;53.074;8.822;2023-04-07T03:36:59;6.40;91.70
6758;DHT22;3416;53.074;8.822;2023-04-07T03:39:34;6.20;91.70
6758;DHT22;3416;53.074;8.822;2023-04-07T03:42:08;6.30;91.90
6758;DHT22;3416;53.074;8.822;2023-04-07T03:44:41;6.20;91.80
6758;DHT22;3416;53.074;8.822;2023-04-07T03:47:17;6.20;91.90
6758;DHT22;3416;53.074;8.822;2023-04-07T03:49:46;6.10;92.00
6758;DHT22;3416;53.074;8.822;2023-04-07T03:52:19;6.10;92.00
6758;DHT22;3416;53.074;8.822;2023-04-07T03:54:50;6.00;92.20
6758;DHT22;3416;53.074;8.822;2023-04-07T03:57:20;6.00;92.30
6758;DHT22;3416;53.074;8.822;2023-04-07T03:59:48;6.00;92.40
6758;DHT22;3416;53.074;8.822;2023-04-07T04:02:18;6.00;92.50
6758;DHT22;3416;53.074;8.822;2023-04-07T04:04:52;6.00;92.60
6758;DHT22;3416;53.074;8.822;2023-04-07T04:07:27;6.00;92.50
6758;DHT22;3416;53.074;8.822;2023-04-07T04:10:00;6.00;92.50
6758;DHT22;3416;53.074;8.822;2023-04-07T04:12:28;6.00;92.50
6758;DHT22;3416;53.074;8.822;2023-04-07T04:15:04;5.90;92.70
6758;DHT22;3416;53.074;8.822;2023-04-07T04:17:44;6.00;92.70
6758;DHT22;3416;53.074;8.822;2023-04-07T04:20:16;5.90;92.70
6758;DHT22;3416;53.074;8.822;2023-04-07T04:22:50;5.90;92.70
6758;DHT22;3416;53.074;8.822;2023-04-07T04:25:25;5.90;92.70
6758;DHT22;3416;53.074;8.822;2023-04-07T04:28:10;6.00;92.70
6758;DHT22;3416;53.074;8.822;2023-04-07T04:30:47;6.00;92.70
6758;DHT22;3416;53.074;8.822;2023-04-07T04:33:15;5.90;92.70
6758;DHT22;3416;53.074;8.822;2023-04-07T04:35:48;5.90;92.70
6758;DHT22;3416;53.074;8.822;2023-04-07T04:38:21;5.90;92.70
6758;DHT22;3416;53.074;8.822;2023-04-07T04:40:54;5.90;92.70
6758;DHT22;3416;53.074;8.822;2023-04-07T04:43:23;5.90;93.00
6758;DHT22;3416;53.074;8.822;2023-04-07T04:45:56;5.90;92.80
6758;DHT22;3416;53.074;8.822;2023-04-07T04:48:25;5.90;92.80
6758;DHT22;3416;53.074;8.822;2023-04-07T04:51:02;5.90;92.80
6758;DHT22;3416;53.074;8.822;2023-04-07T04:53:35;5.90;92.90
6758;DHT22;3416;53.074;8.822;2023-04-07T04:56:16;5.90;92.80
6758;DHT22;3416;53.074;8.822;2023-04-07T04:59:02;6.00;93.10
6758;DHT22;3416;53.074;8.822;2023-04-07T05:01:42;5.90;92.80
6758;DHT22;3416;53.074;8.822;2023-04-07T05:04:15;6.00;92.80
6758;DHT22;3416;53.074;8.822;2023-04-07T05:06:46;6.00;92.80
6758;DHT22;3416;53.074;8.822;2023-04-07T05:09:13;5.90;92.70
6758;DHT22;3416;53.074;8.822;2023-04-07T05:11:42;5.90;92.70
6758;DHT22;3416;53.074;8.822;2023-04-07T05:14:16;6.00;92.70
6758;DHT22;3416;53.074;8.822;2023-04-07T05:16:49;6.00;92.60
6758;DHT22;3416;53.074;8.822;2023-04-07T05:19:25;6.00;92.60
6758;DHT22;3416;53.074;8.822;2023-04-07T05:22:01;6.10;92.60
6758;DHT22;3416;53.074;8.822;2023-04-07T05:24:42;6.10;92.40
6758;DHT22;3416;53.074;8.822;2023-04-07T05:27:12;6.10;92.40
6758;DHT22;3416;53.074;8.822;2023-04-07T05:29:53;6.10;92.30
6758;DHT22;3416;53.074;8.822;2023-04-07T05:32:21;6.20;92.30
6758;DHT22;3416;53.074;8.822;2023-04-07T05:34:56;6.20;92.20
6758;DHT22;3416;53.074;8.822;2023-04-07T05:37:30;6.30;92.10
6758;DHT22;3416;53.074;8.822;2023-04-07T05:40:12;6.30;92.00
6758;DHT22;3416;53.074;8.822;2023-04-07T05:42:52;6.50;91.90
6758;DHT22;3416;53.074;8.822;2023-04-07T05:45:26;6.70;91.70
6758;DHT22;3416;53.074;8.822;2023-04-07T05:48:01;7.10;91.10
6758;DHT22;3416;53.074;8.822;2023-04-07T05:50:44;7.80;90.50
6758;DHT22;3416;53.074;8.822;2023-04-07T05:53:20;8.50;88.60
6758;DHT22;3416;53.074;8.822;2023-04-07T05:55:53;9.10;86.60
6758;DHT22;3416;53.074;8.822;2023-04-07T05:58:35;9.50;84.80
6758;DHT22;3416;53.074;8.822;2023-04-07T06:01:12;9.90;83.40
6758;DHT22;3416;53.074;8.822;2023-04-07T06:03:42;10.40;80.60
6758;DHT22;3416;53.074;8.822;2023-04-07T06:06:10;10.80;79.50
6758;DHT22;3416;53.074;8.822;2023-04-07T06:08:44;11.20;78.20
6758;DHT22;3416;53.074;8.822;2023-04-07T06:11:22;11.70;76.70
6758;DHT22;3416;53.074;8.822;2023-04-07T06:13:57;12.10;75.10
6758;DHT22;3416;53.074;8.822;2023-04-07T06:16:35;12.50;74.10
6758;DHT22;3416;53.074;8.822;2023-04-07T06:19:03;13.10;73.00
6758;DHT22;3416;53.074;8.822;2023-04-07T06:21:36;13.50;71.10
6758;DHT22;3416;53.074;8.822;2023-04-07T06:24:14;13.80;69.60
6758;DHT22;3416;53.074;8.822;2023-04-07T06:26:50;14.00;69.00
6758;DHT22;3416;53.074;8.822;2023-04-07T06:29:19;14.10;68.00
6758;DHT22;3416;53.074;8.822;2023-04-07T06:31:49;14.00;67.60
6758;DHT22;3416;53.074;8.822;2023-04-07T06:34:17;14.30;67.10
6758;DHT22;3416;53.074;8.822;2023-04-07T06:36:57;14.50;66.50
6758;DHT22;3416;53.074;8.822;2023-04-07T06:39:34;14.70;65.80
6758;DHT22;3416;53.074;8.822;2023-04-07T06:42:03;14.80;65.20
6758;DHT22;3416;53.074;8.822;2023-04-07T06:44:40;14.70;65.10
6758;DHT22;3416;53.074;8.822;2023-04-07T06:47:08;15.10;64.90
6758;DHT22;3416;53.074;8.822;2023-04-07T06:49:39;15.50;64.10
6758;DHT22;3416;53.074;8.822;2023-04-07T06:52:07;15.60;63.70
6758;DHT22;3416;53.074;8.822;2023-04-07T06:54:42;15.90;63.50
6758;DHT22;3416;53.074;8.822;2023-04-07T06:57:10;16.30;62.20
6758;DHT22;3416;53.074;8.822;2023-04-07T06:59:48;16.50;61.50
6758;DHT22;3416;53.074;8.822;2023-04-07T07:02:17;16.90;60.90
6758;DHT22;3416;53.074;8.822;2023-04-07T07:04:57;17.70;60.10
6758;DHT22;3416;53.074;8.822;2023-04-07T07:07:28;18.40;58.40
6758;DHT22;3416;53.074;8.822;2023-04-07T07:09:57;18.50;57.60
6758;DHT22;3416;53.074;8.822;2023-04-07T07:12:32;19.00;57.30
6758;DHT22;3416;53.074;8.822;2023-04-07T07:15:28;19.40;56.10
6758;DHT22;3416;53.074;8.822;2023-04-07T07:18:01;19.90;55.50
6758;DHT22;3416;53.074;8.822;2023-04-07T07:20:36;19.90;54.30
6758;DHT22;3416;53.074;8.822;2023-04-07T07:23:07;19.90;53.80
6758;DHT22;3416;53.074;8.822;2023-04-07T07:25:38;19.40;53.90
6758;DHT22;3416;53.074;8.822;2023-04-07T07:28:05;19.60;54.10
6758;DHT22;3416;53.074;8.822;2023-04-07T07:30:38;19.90;53.50
6758;DHT22;3416;53.074;8.822;2023-04-07T07:33:10;19.50;53.30
6758;DHT22;3416;53.074;8.822;2023-04-07T07:35:45;19.30;53.40
6758;DHT22;3416;53.074;8.822;2023-04-07T07:38:19;19.20;54.00
6758;DHT22;3416;53.074;8.822;2023-04-07T07:40:57;19.30;53.20
6758;DHT22;3416;53.074;8.822;2023-04-07T07:43:31;19.00;53.90
6758;DHT22;3416;53.074;8.822;2023-04-07T07:46:06;19.10;53.60
6758;DHT22;3416;53.074;8.822;2023-04-07T07:48:36;19.30;53.60
6758;DHT22;3416;53.074;8.822;2023-04-07T07:51:04;19.90;52.80
6758;DHT22;3416;53.074;8.822;2023-04-07T07:56:46;20.50;51.00
6758;DHT22;3416;53.074;8.822;2023-04-07T07:59:27;20.50;50.10
6758;DHT22;3416;53.074;8.822;2023-04-07T08:01:57;20.40;49.90
6758;DHT22;3416;53.074;8.822;2023-04-07T08:04:33;20.70;49.70
6758;DHT22;3416;53.074;8.822;2023-04-07T08:07:32;20.80;49.30
6758;DHT22;3416;53.074;8.822;2023-04-07T08:10:01;21.20;48.80
6758;DHT22;3416;53.074;8.822;2023-04-07T08:12:40;21.40;47.90
6758;DHT22;3416;53.074;8.822;2023-04-07T08:15:19;21.00;47.90
6758;DHT22;3416;53.074;8.822;2023-04-07T08:17:54;20.90;48.10
6758;DHT22;3416;53.074;8.822;2023-04-07T08:20:48;21.40;48.20
6758;DHT22;3416;53.074;8.822;2023-04-07T08:23:20;21.50;47.60
6758;DHT22;3416;53.074;8.822;2023-04-07T08:25:48;21.50;47.80
6758;DHT22;3416;53.074;8.822;2023-04-07T08:28:20;21.60;47.10
6758;DHT22;3416;53.074;8.822;2023-04-07T08:30:55;21.80;46.70
6758;DHT22;3416;53.074;8.822;2023-04-07T08:33:32;21.20;47.00
6758;DHT22;3416;53.074;8.822;2023-04-07T08:36:01;21.00;47.10
6758;DHT22;3416;53.074;8.822;2023-04-07T08:38:45;21.00;47.30
6758;DHT22;3416;53.074;8.822;2023-04-07T08:41:29;21.20;47.40
6758;DHT22;3416;53.074;8.822;2023-04-07T08:44:06;21.40;47.10
6758;DHT22;3416;53.074;8.822;2023-04-07T08:46:44;21.40;46.50
6758;DHT22;3416;53.074;8.822;2023-04-07T08:49:21;21.40;46.50
6758;DHT22;3416;53.074;8.822;2023-04-07T08:51:55;21.10;46.30
6758;DHT22;3416;53.074;8.822;2023-04-07T08:54:27;20.80;46.60
6758;DHT22;3416;53.074;8.822;2023-04-07T08:57:04;20.70;46.70
6758;DHT22;3416;53.074;8.822;2023-04-07T08:59:34;20.60;46.80
6758;DHT22;3416;53.074;8.822;2023-04-07T09:02:12;20.50;46.70
6758;DHT22;3416;53.074;8.822;2023-04-07T09:04:43;20.30;46.90
6758;DHT22;3416;53.074;8.822;2023-04-07T09:07:29;20.20;47.00
6758;DHT22;3416;53.074;8.822;2023-04-07T09:10:01;20.00;47.10
6758;DHT22;3416;53.074;8.822;2023-04-07T09:12:31;20.30;46.90
6758;DHT22;3416;53.074;8.822;2023-04-07T09:15:04;20.40;46.70
6758;DHT22;3416;53.074;8.822;2023-04-07T09:17:49;20.30;46.60
6758;DHT22;3416;53.074;8.822;2023-04-07T09:20:22;20.00;46.60
6758;DHT22;3416;53.074;8.822;2023-04-07T09:22:56;20.10;46.60
6758;DHT22;3416;53.074;8.822;2023-04-07T09:25:30;20.00;46.70
6758;DHT22;3416;53.074;8.822;2023-04-07T09:28:04;20.00;46.60
6758;DHT22;3416;53.074;8.822;2023-04-07T09:30:51;20.10;46.50
6758;DHT22;3416;53.074;8.822;2023-04-07T09:33:26;19.70;46.90
6758;DHT22;3416;53.074;8.822;2023-04-07T09:35:59;19.90;47.40
6758;DHT22;3416;53.074;8.822;2023-04-07T09:38:37;20.30;47.20
6758;DHT22;3416;53.074;8.822;2023-04-07T09:41:11;20.40;46.50
6758;DHT22;3416;53.074;8.822;2023-04-07T09:43:40;20.10;46.70
6758;DHT22;3416;53.074;8.822;2023-04-07T09:46:12;19.80;47.10
6758;DHT22;3416;53.074;8.822;2023-04-07T09:49:02;19.50;47.50
6758;DHT22;3416;53.074;8.822;2023-04-07T09:51:33;19.50;47.50
6758;DHT22;3416;53.074;8.822;2023-04-07T09:54:00;19.30;47.30
6758;DHT22;3416;53.074;8.822;2023-04-07T09:56:28;19.20;47.50
6758;DHT22;3416;53.074;8.822;2023-04-07T09:58:55;18.90;47.80
6758;DHT22;3416;53.074;8.822;2023-04-07T10:01:24;18.80;48.20
6758;DHT22;3416;53.074;8.822;2023-04-07T10:03:51;18.80;48.20
6758;DHT22;3416;53.074;8.822;2023-04-07T10:06:20;18.60;48.20
6758;DHT22;3416;53.074;8.822;2023-04-07T10:08:49;18.40;48.20
6758;DHT22;3416;53.074;8.822;2023-04-07T10:11:16;18.20;48.50
6758;DHT22;3416;53.074;8.822;2023-04-07T10:13:44;17.80;48.60
6758;DHT22;3416;53.074;8.822;2023-04-07T10:16:11;17.90;49.20
6758;DHT22;3416;53.074;8.822;2023-04-07T10:18:40;17.80;48.80
6758;DHT22;3416;53.074;8.822;2023-04-07T10:21:07;17.80;49.20
6758;DHT22;3416;53.074;8.822;2023-04-07T10:23:49;17.80;49.10
6758;DHT22;3416;53.074;8.822;2023-04-07T10:26:21;17.90;48.90
6758;DHT22;3416;53.074;8.822;2023-04-07T10:28:52;17.70;49.30
6758;DHT22;3416;53.074;8.822;2023-04-07T10:31:21;17.50;49.20
6758;DHT22;3416;53.074;8.822;2023-04-07T10:33:51;17.10;49.80
6758;DHT22;3416;53.074;8.822;2023-04-07T10:36:22;16.80;50.50
6758;DHT22;3416;53.074;8.822;2023-04-07T10:39:20;16.40;50.90
6758;DHT22;3416;53.074;8.822;2023-04-07T10:41:48;16.40;50.70
6758;DHT22;3416;53.074;8.822;2023-04-07T10:44:44;16.70;51.60
6758;DHT22;3416;53.074;8.822;2023-04-07T10:47:13;16.80;51.70
6758;DHT22;3416;53.074;8.822;2023-04-07T10:50:15;16.80;51.20
6758;DHT22;3416;53.074;8.822;2023-04-07T10:52:42;16.90;51.50
6758;DHT22;3416;53.074;8.822;2023-04-07T10:55:31;16.80;51.50
6758;DHT22;3416;53.074;8.822;2023-04-07T10:58:21;16.80;51.60
6758;DHT22;3416;53.074;8.822;2023-04-07T11:01:18;16.40;51.60
6758;DHT22;3416;53.074;8.822;2023-04-07T11:04:08;16.50;51.90
6758;DHT22;3416;53.074;8.822;2023-04-07T11:06:45;16.50;51.50
6758;DHT22;3416;53.074;8.822;2023-04-07T11:09:18;16.40;51.90
6758;DHT22;3416;53.074;8.822;2023-04-07T11:11:46;16.50;52.00
6758;DHT22;3416;53.074;8.822;2023-04-07T11:14:25;16.00;52.10
6758;DHT22;3416;53.074;8.822;2023-04-07T11:16:52;16.30;53.00
6758;DHT22;3416;53.074;8.822;2023-04-07T11:19:22;16.40;52.40
6758;DHT22;3416;53.074;8.822;2023-04-07T11:22:14;16.20;52.40
6758;DHT22;3416;53.074;8.822;2023-04-07T11:24:41;16.40;52.20
6758;DHT22;3416;53.074;8.822;2023-04-07T11:27:11;16.20;52.20
6758;DHT22;3416;53.074;8.822;2023-04-07T11:29:39;16.10;52.50
6758;DHT22;3416;53.074;8.822;2023-04-07T11:32:05;16.00;52.60
6758;DHT22;3416;53.074;8.822;2023-04-07T11:34:34;16.00;53.20
6758;DHT22;3416;53.074;8.822;2023-04-07T11:37:21;16.00;53.50
6758;DHT22;3416;53.074;8.822;2023-04-07T11:39:52;15.90;53.40
6758;DHT22;3416;53.074;8.822;2023-04-07T11:42:31;15.90;53.50
6758;DHT22;3416;53.074;8.822;2023-04-07T11:44:58;15.80;53.30
6758;DHT22;3416;53.074;8.822;2023-04-07T11:47:33;15.90;53.70
6758;DHT22;3416;53.074;8.822;2023-04-07T11:50:00;15.90;53.60
6758;DHT22;3416;53.074;8.822;2023-04-07T11:52:39;15.90;53.60
6758;DHT22;3416;53.074;8.822;2023-04-07T11:55:16;15.90;53.50
6758;DHT22;3416;53.074;8.822;2023-04-07T11:57:43;15.70;53.60
6758;DHT22;3416;53.074;8.822;2023-04-07T12:00:11;15.80;53.60
6758;DHT22;3416;53.074;8.822;2023-04-07T12:02:38;15.70;53.50
6758;DHT22;3416;53.074;8.822;2023-04-07T12:05:07;15.80;53.60
6758;DHT22;3416;53.074;8.822;2023-04-07T12:07:39;15.80;53.40
6758;DHT22;3416;53.074;8.822;2023-04-07T12:10:21;15.60;53.50
6758;DHT22;3416;53.074;8.822;2023-04-07T12:12:48;15.70;53.60
6758;DHT22;3416;53.074;8.822;2023-04-07T12:15:16;15.80;53.20
6758;DHT22;3416;53.074;8.822;2023-04-07T12:17:47;15.70;53.50
6758;DHT22;3416;53.074;8.822;2023-04-07T12:20:15;15.60;53.60
6758;DHT22;3416;53.074;8.822;2023-04-07T12:22:44;15.60;53.40
6758;DHT22;3416;53.074;8.822;2023-04-07T12:25:11;15.60;53.90
6758;DHT22;3416;53.074;8.822;2023-04-07T12:27:37;15.50;53.70
6758;DHT22;3416;53.074;8.822;2023-04-07T12:30:05;15.50;54.10
6758;DHT22;3416;53.074;8.822;2023-04-07T12:32:34;15.30;54.20
6758;DHT22;3416;53.074;8.822;2023-04-07T12:35:02;15.50;53.90
6758;DHT22;3416;53.074;8.822;2023-04-07T12:37:29;15.60;53.60
6758;DHT22;3416;53.074;8.822;2023-04-07T12:40:01;15.60;53.80
6758;DHT22;3416;53.074;8.822;2023-04-07T12:42:28;15.70;54.20
6758;DHT22;3416;53.074;8.822;2023-04-07T12:44:55;15.50;54.60
6758;DHT22;3416;53.074;8.822;2023-04-07T12:47:23;15.60;55.20
6758;DHT22;3416;53.074;8.822;2023-04-07T12:49:50;15.70;54.80
6758;DHT22;3416;53.074;8.822;2023-04-07T12:52:17;15.80;54.20
6758;DHT22;3416;53.074;8.822;2023-04-07T12:54:44;15.60;54.40
6758;DHT22;3416;53.074;8.822;2023-04-07T12:57:12;15.70;54.10
6758;DHT22;3416;53.074;8.822;2023-04-07T12:59:40;15.60;54.50
6758;DHT22;3416;53.074;8.822;2023-04-07T13:02:07;15.60;54.50
6758;DHT22;3416;53.074;8.822;2023-04-07T13:04:36;15.50;54.90
6758;DHT22;3416;53.074;8.822;2023-04-07T13:07:05;15.60;55.00
6758;DHT22;3416;53.074;8.822;2023-04-07T13:09:32;15.70;54.40
6758;DHT22;3416;53.074;8.822;2023-04-07T13:12:00;15.60;54.00
6758;DHT22;3416;53.074;8.822;2023-04-07T13:14:28;15.70;54.20
6758;DHT22;3416;53.074;8.822;2023-04-07T13:16:55;15.70;54.20
6758;DHT22;3416;53.074;8.822;2023-04-07T13:19:23;15.70;54.10
6758;DHT22;3416;53.074;8.822;2023-04-07T13:21:50;15.70;54.40
6758;DHT22;3416;53.074;8.822;2023-04-07T13:24:17;15.60;54.00
6758;DHT22;3416;53.074;8.822;2023-04-07T13:26:46;15.40;54.50
6758;DHT22;3416;53.074;8.822;2023-04-07T13:29:15;15.50;54.20
6758;DHT22;3416;53.074;8.822;2023-04-07T13:31:44;15.50;54.10
6758;DHT22;3416;53.074;8.822;2023-04-07T13:34:11;15.40;54.00
6758;DHT22;3416;53.074;8.822;2023-04-07T13:36:40;15.40;54.90
6758;DHT22;3416;53.074;8.822;2023-04-07T13:39:07;15.40;55.40
6758;DHT22;3416;53.074;8.822;2023-04-07T13:41:35;15.50;55.00
6758;DHT22;3416;53.074;8.822;2023-04-07T13:44:01;15.50;54.80
6758;DHT22;3416;53.074;8.822;2023-04-07T13:46:29;15.60;54.60
6758;DHT22;3416;53.074;8.822;2023-04-07T13:48:57;15.50;54.30
6758;DHT22;3416;53.074;8.822;2023-04-07T13:51:24;15.30;54.80
6758;DHT22;3416;53.074;8.822;2023-04-07T13:53:52;15.40;54.60
6758;DHT22;3416;53.074;8.822;2023-04-07T13:56:19;15.40;54.60
6758;DHT22;3416;53.074;8.822;2023-04-07T13:58:47;15.30;54.60
6758;DHT22;3416;53.074;8.822;2023-04-07T14:01:13;15.30;54.20
6758;DHT22;3416;53.074;8.822;2023-04-07T14:03:41;15.30;53.90
6758;DHT22;3416;53.074;8.822;2023-04-07T14:06:12;15.30;53.90
6758;DHT22;3416;53.074;8.822;2023-04-07T14:08:39;15.30;53.80
6758;DHT22;3416;53.074;8.822;2023-04-07T14:11:07;15.30;53.60
6758;DHT22;3416;53.074;8.822;2023-04-07T14:13:34;15.30;53.90
6758;DHT22;3416;53.074;8.822;2023-04-07T14:16:01;15.30;53.90
6758;DHT22;3416;53.074;8.822;2023-04-07T14:18:28;15.20;53.80
6758;DHT22;3416;53.074;8.822;2023-04-07T14:20:55;15.30;54.00
6758;DHT22;3416;53.074;8.822;2023-04-07T14:23:23;15.30;53.70
6758;DHT22;3416;53.074;8.822;2023-04-07T14:25:51;15.20;54.00
6758;DHT22;3416;53.074;8.822;2023-04-07T14:28:18;15.10;54.10
6758;DHT22;3416;53.074;8.822;2023-04-07T14:30:45;15.10;54.10
6758;DHT22;3416;53.074;8.822;2023-04-07T14:33:16;15.00;54.40
6758;DHT22;3416;53.074;8.822;2023-04-07T14:35:44;15.00;53.90
6758;DHT22;3416;53.074;8.822;2023-04-07T14:38:11;15.00;54.20
6758;DHT22;3416;53.074;8.822;2023-04-07T14:40:39;14.90;53.40
6758;DHT22;3416;53.074;8.822;2023-04-07T14:43:07;15.00;53.50
6758;DHT22;3416;53.074;8.822;2023-04-07T14:45:34;15.10;54.10
6758;DHT22;3416;53.074;8.822;2023-04-07T14:48:01;15.10;54.00
6758;DHT22;3416;53.074;8.822;2023-04-07T14:50:31;15.10;54.20
6758;DHT22;3416;53.074;8.822;2023-04-07T14:52:58;15.10;53.80
6758;DHT22;3416;53.074;8.822;2023-04-07T14:55:25;15.10;53.50
6758;DHT22;3416;53.074;8.822;2023-04-07T14:57:54;15.20;53.40
6758;DHT22;3416;53.074;8.822;2023-04-07T15:00:21;15.20;53.20
6758;DHT22;3416;53.074;8.822;2023-04-07T15:02:50;15.20;53.00
6758;DHT22;3416;53.074;8.822;2023-04-07T15:05:18;15.20;52.90
6758;DHT22;3416;53.074;8.822;2023-04-07T15:07:47;15.10;52.50
6758;DHT22;3416;53.074;8.822;2023-04-07T15:10:15;15.00;52.60
6758;DHT22;3416;53.074;8.822;2023-04-07T15:12:43;15.00;52.60
6758;DHT22;3416;53.074;8.822;2023-04-07T15:15:12;15.10;52.40
6758;DHT22;3416;53.074;8.822;2023-04-07T15:17:40;15.10;52.60
6758;DHT22;3416;53.074;8.822;2023-04-07T15:20:07;15.10;53.30
6758;DHT22;3416;53.074;8.822;2023-04-07T15:22:34;15.10;53.10
6758;DHT22;3416;53.074;8.822;2023-04-07T15:25:02;15.20;53.20
6758;DHT22;3416;53.074;8.822;2023-04-07T15:27:29;15.20;53.10
6758;DHT22;3416;53.074;8.822;2023-04-07T15:29:56;15.20;52.90
6758;DHT22;3416;53.074;8.822;2023-04-07T15:32:24;15.10;53.20
6758;DHT22;3416;53.074;8.822;2023-04-07T15:34:51;15.20;53.30
6758;DHT22;3416;53.074;8.822;2023-04-07T15:37:18;15.20;53.50
6758;DHT22;3416;53.074;8.822;2023-04-07T15:39:45;15.10;53.60
6758;DHT22;3416;53.074;8.822;2023-04-07T15:42:12;15.00;54.10
6758;DHT22;3416;53.074;8.822;2023-04-07T15:44:39;15.10;54.10
6758;DHT22;3416;53.074;8.822;2023-04-07T15:47:06;15.10;53.90
6758;DHT22;3416;53.074;8.822;2023-04-07T15:49:35;15.10;53.90
6758;DHT22;3416;53.074;8.822;2023-04-07T15:52:03;14.90;54.60
6758;DHT22;3416;53.074;8.822;2023-04-07T15:54:30;14.90;54.50
6758;DHT22;3416;53.074;8.822;2023-04-07T15:56:57;14.90;54.00
6758;DHT22;3416;53.074;8.822;2023-04-07T15:59:24;14.90;54.20
6758;DHT22;3416;53.074;8.822;2023-04-07T16:01:53;14.90;54.30
6758;DHT22;3416;53.074;8.822;2023-04-07T16:04:20;14.80;54.40
6758;DHT22;3416;53.074;8.822;2023-04-07T16:06:49;14.70;54.50
6758;DHT22;3416;53.074;8.822;2023-04-07T16:09:18;14.50;54.70
6758;DHT22;3416;53.074;8.822;2023-04-07T16:11:45;14.60;54.70
6758;DHT22;3416;53.074;8.822;2023-04-07T16:14:13;14.50;55.10
6758;DHT22;3416;53.074;8.822;2023-04-07T16:16:40;14.50;55.50
6758;DHT22;3416;53.074;8.822;2023-04-07T16:19:09;14.50;55.80
6758;DHT22;3416;53.074;8.822;2023-04-07T16:21:36;14.50;55.80
6758;DHT22;3416;53.074;8.822;2023-04-07T16:24:05;14.50;56.00
6758;DHT22;3416;53.074;8.822;2023-04-07T16:26:32;14.50;56.00
6758;DHT22;3416;53.074;8.822;2023-04-07T16:29:00;14.40;56.20
6758;DHT22;3416;53.074;8.822;2023-04-07T16:31:27;14.40;56.50
6758;DHT22;3416;53.074;8.822;2023-04-07T16:33:54;14.30;56.00
6758;DHT22;3416;53.074;8.822;2023-04-07T16:36:21;14.30;56.00
6758;DHT22;3416;53.074;8.822;2023-04-07T16:38:48;14.30;55.90
6758;DHT22;3416;53.074;8.822;2023-04-07T16:41:17;14.20;55.90
6758;DHT22;3416;53.074;8.822;2023-04-07T16:43:44;14.20;55.80
6758;DHT22;3416;53.074;8.822;2023-04-07T16:46:11;14.10;55.80